Time;durP1;ratioP1;P1;durP2;ratioP2;P2;SDS_P1;SDS_P2;PMS_P1;PMS_P2;Temp;Humidity;BMP_temperature;BMP_pressure;BME280_temperature;BME280_humidity;BME280_pressure;Samples;Min_cycle;Max_cycle;Signal;HPM_P1;HPM_P2
2021/03/26 00:00:55;;;;;;;15.45;7.55;;;;;;;10.30;56.56;97661.91;5030293;28;20037;-78
2021/03/26 00:03:29;;;;;;;14.52;7.45;;;;;;;10.43;56.39;97653.84;5016801;28;20033;-78
2021/03/26 00:05:57;;;;;;;13.52;8.45;;;;;;;10.42;56.67;97667.13;5017605;28;20032;-78
2021/03/26 00:08:23;;;;;;;12.13;7.18;;;;;;;10.50;56.70;97658.91;5016196;28;20092;-78
2021/03/26 00:10:48;;;;;;;15.98;8.48;;;;;;;10.51;56.54;97655.31;5024216;28;20112;-78
2021/03/26 00:13:14;;;;;;;13.93;8.68;;;;;;;10.39;56.56;97652.75;5032904;28;20109;-78
2021/03/26 00:15:39;;;;;;;17.70;9.73;;;;;;;10.41;56.32;97663.72;5011827;28;20246;-78
2021/03/26 00:18:05;;;;;;;17.80;8.52;;;;;;;10.30;56.99;97659.31;5029352;28;20563;-77
2021/03/26 00:20:31;;;;;;;11.88;7.28;;;;;;;10.30;57.04;97654.88;5033691;28;20033;-77
2021/03/26 00:22:57;;;;;;;14.40;8.25;;;;;;;10.23;56.89;97649.03;5013708;28;20056;-77
2021/03/26 00:25:22;;;;;;;15.32;8.38;;;;;;;10.20;56.98;97657.28;5025229;28;20033;-78
2021/03/26 00:27:48;;;;;;;14.85;8.68;;;;;;;10.13;57.03;97654.81;5020104;28;20044;-77
2021/03/26 00:30:15;;;;;;;12.80;8.25;;;;;;;9.99;57.35;97653.47;5013882;28;20403;-77
2021/03/26 00:32:43;;;;;;;17.75;8.02;;;;;;;9.98;57.31;97656.31;5030186;28;20040;-78
2021/03/26 00:35:11;;;;;;;16.52;8.48;;;;;;;9.91;57.43;97646.81;5036361;28;20514;-78
2021/03/26 00:37:37;;;;;;;14.15;8.27;;;;;;;9.93;57.83;97647.34;5035253;28;20468;-77
2021/03/26 00:40:05;;;;;;;12.75;7.75;;;;;;;9.87;57.85;97653.50;5036881;28;20319;-78
2021/03/26 00:42:31;;;;;;;13.85;8.15;;;;;;;9.90;58.32;97647.84;5031722;28;20133;-78
2021/03/26 00:44:58;;;;;;;16.02;9.23;;;;;;;9.78;58.85;97654.84;5044892;28;20037;-77
2021/03/26 00:47:24;;;;;;;14.52;8.82;;;;;;;9.99;58.13;97655.28;5038817;28;20384;-77
2021/03/26 00:49:50;;;;;;;18.90;9.88;;;;;;;9.97;59.02;97652.13;5022857;28;20041;-78
2021/03/26 00:52:15;;;;;;;17.85;9.35;;;;;;;9.87;58.66;97647.47;5015727;28;20029;-77
2021/03/26 00:54:40;;;;;;;15.35;9.60;;;;;;;9.93;58.60;97642.16;5019142;28;20025;-77
2021/03/26 00:57:06;;;;;;;13.23;8.52;;;;;;;9.96;58.53;97642.75;5016095;28;20040;-78
2021/03/26 00:59:32;;;;;;;17.95;9.35;;;;;;;10.03;57.48;97652.00;5054850;28;20029;-77
2021/03/26 01:01:57;;;;;;;15.10;8.95;;;;;;;9.92;58.04;97639.78;5019366;28;20033;-77
2021/03/26 01:04:23;;;;;;;16.02;9.60;;;;;;;9.84;58.31;97640.94;5039717;28;20349;-77
2021/03/26 01:06:49;;;;;;;16.85;8.77;;;;;;;9.83;58.19;97636.75;5050205;28;20021;-77
2021/03/26 01:09:14;;;;;;;15.85;8.30;;;;;;;9.81;58.18;97636.19;5007165;28;20028;-77
2021/03/26 01:11:41;;;;;;;17.10;9.75;;;;;;;9.73;58.91;97642.53;5040729;28;20578;-78
2021/03/26 01:14:12;;;;;;;16.33;9.90;;;;;;;9.66;58.64;97641.06;5002038;28;20029;-77
2021/03/26 01:16:38;;;;;;;16.17;9.07;;;;;;;9.74;58.46;97636.28;5028206;28;20029;-77
2021/03/26 01:19:04;;;;;;;14.43;7.93;;;;;;;9.67;58.68;97633.03;5025915;28;20095;-78
2021/03/26 01:21:33;;;;;;;13.65;8.32;;;;;;;9.54;59.23;97641.03;5032900;28;20084;-77
2021/03/26 01:23:59;;;;;;;16.00;9.20;;;;;;;9.64;59.33;97640.50;5016374;28;20535;-77
2021/03/26 01:26:25;;;;;;;20.42;10.02;;;;;;;9.60;59.15;97629.75;5029630;28;20029;-78
2021/03/26 01:28:50;;;;;;;17.38;9.50;;;;;;;9.55;59.10;97633.03;5009596;28;20476;-77
2021/03/26 01:31:16;;;;;;;17.65;9.57;;;;;;;9.53;59.31;97637.66;5021502;28;20052;-78
2021/03/26 01:33:42;;;;;;;17.00;9.57;;;;;;;9.50;59.67;97622.50;5022055;28;20396;-77
2021/03/26 01:36:08;;;;;;;16.80;10.07;;;;;;;9.45;59.53;97622.41;5006441;28;20025;-77
2021/03/26 01:38:34;;;;;;;14.00;8.98;;;;;;;9.44;59.61;97625.22;5037077;28;20028;-78
2021/03/26 01:41:06;;;;;;;16.20;9.68;;;;;;;9.18;59.88;97622.03;5022449;28;20122;-78
2021/03/26 01:43:37;;;;;;;15.85;8.98;;;;;;;9.10;59.91;97615.38;5005658;28;20558;-77
2021/03/26 01:46:05;;;;;;;14.32;8.80;;;;;;;9.22;59.93;97609.38;4998251;28;20029;-78
2021/03/26 01:48:46;;;;;;;16.27;9.85;;;;;;;9.07;59.87;97613.22;5039008;28;20041;-78
2021/03/26 01:51:14;;;;;;;15.70;8.95;;;;;;;9.20;59.66;97612.19;5006942;28;20036;-78
2021/03/26 01:53:40;;;;;;;18.42;9.88;;;;;;;9.17;59.74;97608.25;5040237;28;20025;-77
2021/03/26 01:56:06;;;;;;;17.63;9.73;;;;;;;9.10;59.15;97612.78;5037155;28;20410;-77
2021/03/26 01:58:33;;;;;;;12.68;8.57;;;;;;;8.91;58.94;97595.66;5034621;28;20029;-77
2021/03/26 02:01:09;;;;;;;20.25;9.73;;;;;;;8.64;59.57;97603.84;5005395;28;20116;-78
2021/03/26 02:03:38;;;;;;;17.33;10.27;;;;;;;8.84;60.12;97610.56;5009247;23;20045;-77
2021/03/26 02:06:11;;;;;;;16.30;9.70;;;;;;;8.74;60.62;97598.91;5024617;28;20112;-77
2021/03/26 02:08:38;;;;;;;20.70;10.50;;;;;;;8.83;60.66;97593.41;5032010;28;20068;-77
2021/03/26 02:11:18;;;;;;;16.00;9.15;;;;;;;8.65;61.14;97600.22;4999624;28;20568;-77
2021/03/26 02:13:43;;;;;;;16.58;9.30;;;;;;;8.96;59.86;97591.41;5031099;28;20061;-77
2021/03/26 02:16:10;;;;;;;15.35;8.63;;;;;;;8.83;59.84;97596.78;4999609;28;20068;-77
2021/03/26 02:18:40;;;;;;;16.70;10.35;;;;;;;8.79;60.28;97601.63;5015260;28;20033;-78
2021/03/26 02:21:08;;;;;;;18.60;9.95;;;;;;;8.80;59.86;97598.00;4999315;28;20041;-78
2021/03/26 02:23:37;;;;;;;17.30;9.15;;;;;;;8.84;60.27;97597.56;5014826;28;20083;-77
2021/03/26 02:26:28;;;;;;;16.55;9.07;;;;;;;8.67;59.82;97598.22;5032317;28;20523;-77
2021/03/26 02:28:55;;;;;;;20.75;10.38;;;;;;;8.88;61.31;97599.50;5023093;28;20045;-77
2021/03/26 02:31:20;;;;;;;17.05;8.98;;;;;;;8.91;60.05;97604.28;5012715;28;20033;-77
2021/03/26 02:33:46;;;;;;;11.98;6.63;;;;;;;8.81;58.73;97599.59;5028668;28;20044;-77
2021/03/26 02:36:20;;;;;;;15.65;8.95;;;;;;;8.61;59.70;97601.69;5031148;28;20064;-77
2021/03/26 02:38:49;;;;;;;13.90;7.95;;;;;;;8.55;59.43;97603.38;5013521;28;20411;-76
2021/03/26 02:41:31;;;;;;;15.00;7.28;;;;;;;8.40;59.03;97603.72;5012981;28;20647;-77
2021/03/26 02:44:21;;;;;;;19.25;10.23;;;;;;;8.36;61.07;97596.59;5029990;28;20041;-76
2021/03/26 02:47:08;;;;;;;19.48;10.90;;;;;;;8.51;61.46;97597.03;4989616;28;20029;-76
2021/03/26 02:49:58;;;;;;;19.85;10.38;;;;;;;8.67;62.25;97603.41;5031502;28;20053;-76
2021/03/26 02:52:32;;;;;;;22.30;11.18;;;;;;;8.67;62.72;97593.03;4996576;28;20044;-77
2021/03/26 02:55:05;;;;;;;23.13;11.67;;;;;;;8.82;61.99;97592.59;4997346;28;20021;-76
2021/03/26 02:57:35;;;;;;;19.95;11.70;;;;;;;9.04;61.35;97598.06;4997186;28;20029;-76
2021/03/26 03:00:09;;;;;;;20.50;10.77;;;;;;;8.91;61.57;97598.25;4996462;28;20025;-76
2021/03/26 03:02:36;;;;;;;19.05;10.38;;;;;;;9.13;59.78;97591.56;5013606;28;20041;-76
2021/03/26 03:05:07;;;;;;;16.52;9.15;;;;;;;9.02;58.49;97597.50;5027609;28;20033;-76
2021/03/26 03:07:36;;;;;;;20.92;10.15;;;;;;;8.91;60.58;97585.28;5029657;28;20026;-77
2021/03/26 03:10:09;;;;;;;18.92;11.93;;;;;;;8.80;61.46;97598.00;5013364;28;20033;-76
2021/03/26 03:12:38;;;;;;;20.17;11.23;;;;;;;8.93;61.69;97585.88;5027773;28;20380;-76
2021/03/26 03:15:09;;;;;;;19.27;10.20;;;;;;;8.93;61.54;97591.06;5009541;28;20056;-77
2021/03/26 03:17:50;;;;;;;20.35;12.15;;;;;;;8.88;62.05;97593.53;5032665;28;20029;-76
2021/03/26 03:20:23;;;;;;;23.45;11.80;;;;;;;8.80;61.91;97573.88;5025119;28;20124;-76
2021/03/26 03:23:05;;;;;;;20.38;10.93;;;;;;;8.84;62.25;97575.00;5029286;28;20030;-77
2021/03/26 03:25:31;;;;;;;20.83;10.50;;;;;;;9.10;60.90;97580.78;5013167;28;20698;-76
2021/03/26 03:28:23;;;;;;;19.02;10.65;;;;;;;8.75;61.34;97579.72;4996614;28;20052;-76
2021/03/26 03:31:06;;;;;;;20.13;10.15;;;;;;;8.91;61.25;97585.28;5013115;28;20044;-76
2021/03/26 03:33:43;;;;;;;19.67;10.02;;;;;;;8.79;61.21;97570.47;5017508;28;20427;-76
2021/03/26 03:36:21;;;;;;;20.42;11.07;;;;;;;8.83;60.92;97575.25;5025669;28;20025;-77
2021/03/26 03:38:52;;;;;;;19.80;9.60;;;;;;;8.80;60.08;97571.28;5026432;28;20037;-76
2021/03/26 03:41:41;;;;;;;17.45;10.38;;;;;;;8.92;60.50;97572.06;5029428;28;20039;-76
2021/03/26 03:44:18;;;;;;;19.08;10.00;;;;;;;8.66;60.76;97575.09;5012368;28;20037;-77
2021/03/26 03:47:02;;;;;;;16.58;9.23;;;;;;;8.55;60.92;97574.81;5012564;28;20392;-76
2021/03/26 03:49:39;;;;;;;19.73;9.43;;;;;;;8.33;60.85;97565.88;5012556;28;20065;-77
2021/03/26 03:52:12;;;;;;;18.65;9.57;;;;;;;8.41;60.69;97566.41;5023599;28;20042;-76
2021/03/26 03:55:02;;;;;;;20.20;11.07;;;;;;;8.30;62.83;97577.50;5028797;28;20083;-76
2021/03/26 03:57:30;;;;;;;21.55;10.40;;;;;;;8.52;61.77;97571.88;5029050;28;20029;-77
2021/03/26 04:00:04;;;;;;;19.60;10.75;;;;;;;8.46;62.63;97568.34;5028775;28;20041;-76
2021/03/26 04:02:50;;;;;;;15.93;10.43;;;;;;;8.36;62.45;97568.06;5009568;28;20485;-76
2021/03/26 04:05:21;;;;;;;18.83;11.30;;;;;;;8.53;62.56;97571.63;5026207;28;20053;-77
2021/03/26 04:08:12;;;;;;;19.23;9.68;;;;;;;8.69;61.78;97572.84;5026254;28;20112;-76
2021/03/26 04:10:41;;;;;;;19.35;9.65;;;;;;;8.54;61.54;97568.03;4998552;28;20088;-76
2021/03/26 04:13:14;;;;;;;18.48;10.20;;;;;;;8.46;61.82;97570.94;5028571;28;20069;-76
2021/03/26 04:15:43;;;;;;;18.33;9.50;;;;;;;8.50;62.44;97564.31;5028825;28;20037;-76
2021/03/26 04:18:14;;;;;;;17.92;10.23;;;;;;;8.60;62.05;97566.34;4986068;28;20044;-76
2021/03/26 04:20:55;;;;;;;17.85;10.82;;;;;;;8.39;61.89;97559.84;4992670;28;20038;-77
2021/03/26 04:23:28;;;;;;;18.80;9.82;;;;;;;8.48;61.72;97557.75;5008385;28;20369;-76
2021/03/26 04:26:05;;;;;;;18.27;9.68;;;;;;;8.41;62.08;97563.00;4993074;28;20053;-77
2021/03/26 04:28:41;;;;;;;18.70;10.43;;;;;;;8.65;61.60;97563.88;5024491;28;20431;-76
2021/03/26 04:31:10;;;;;;;16.95;9.75;;;;;;;8.61;60.91;97563.53;5028539;28;20383;-76
2021/03/26 04:33:35;;;;;;;17.48;9.25;;;;;;;8.66;59.91;97567.28;5025850;28;20131;-77
2021/03/26 04:36:03;;;;;;;16.27;9.05;;;;;;;8.52;60.94;97564.09;5028794;28;20560;-76
2021/03/26 04:38:43;;;;;;;16.83;9.88;;;;;;;8.38;61.47;97560.84;5025001;28;20529;-76
2021/03/26 04:41:18;;;;;;;20.85;11.18;;;;;;;8.52;62.50;97557.09;5028575;28;20029;-76
2021/03/26 04:44:02;;;;;;;21.75;11.00;;;;;;;8.57;63.27;97557.22;5028501;28;20057;-76
2021/03/26 04:46:44;;;;;;;21.55;11.27;;;;;;;8.63;62.70;97555.53;5028506;28;20029;-77
2021/03/26 04:49:35;;;;;;;21.73;11.27;;;;;;;8.72;63.07;97559.41;5036282;28;20114;-77
2021/03/26 04:52:03;;;;;;;22.08;10.55;;;;;;;8.96;62.71;97562.03;5028273;28;20380;-76
2021/03/26 04:54:33;;;;;;;22.83;11.40;;;;;;;9.05;61.96;97563.31;5026374;28;20029;-76
2021/03/26 04:57:05;;;;;;;23.50;11.75;;;;;;;9.03;61.90;97560.13;5027110;28;20493;-77
2021/03/26 04:59:41;;;;;;;22.15;12.13;;;;;;;8.96;61.64;97562.03;5006335;28;20491;-77
2021/03/26 05:02:09;;;;;;;18.90;9.90;;;;;;;9.01;60.89;97556.94;5027799;28;20086;-76
2021/03/26 05:04:38;;;;;;;19.40;11.75;;;;;;;8.95;60.36;97558.66;5022673;28;20040;-76
2021/03/26 05:07:06;;;;;;;16.55;8.63;;;;;;;8.90;60.12;97555.16;5027288;28;20053;-76
2021/03/26 05:09:38;;;;;;;15.02;8.82;;;;;;;8.58;59.17;97542.44;5025911;28;20037;-77
2021/03/26 05:12:07;;;;;;;18.40;9.48;;;;;;;8.57;60.17;97557.22;5028157;28;20123;-76
2021/03/26 05:14:37;;;;;;;16.67;9.52;;;;;;;8.46;60.33;97550.19;5028067;28;20041;-76
2021/03/26 05:17:12;;;;;;;16.48;9.07;;;;;;;8.36;60.11;97563.69;5016753;28;20081;-76
2021/03/26 05:19:52;;;;;;;15.90;9.85;;;;;;;8.26;60.21;97560.81;4991784;28;20107;-77
2021/03/26 05:22:26;;;;;;;19.67;10.32;;;;;;;8.23;59.79;97556.06;5012125;28;20033;-76
2021/03/26 05:25:00;;;;;;;19.85;10.05;;;;;;;8.14;60.63;97555.56;5029423;28;20033;-77
2021/03/26 05:27:25;;;;;;;16.42;9.13;;;;;;;8.31;59.88;97558.34;5014883;28;20488;-77
2021/03/26 05:29:51;;;;;;;20.33;10.02;;;;;;;8.24;60.38;97549.84;5015333;28;20034;-77
2021/03/26 05:32:27;;;;;;;15.98;9.73;;;;;;;8.04;60.70;97547.53;5014348;28;20183;-77
2021/03/26 05:35:16;;;;;;;23.52;11.15;;;;;;;8.31;60.33;97552.34;5005813;28;20079;-76
2021/03/26 05:37:52;;;;;;;20.52;11.40;;;;;;;7.98;61.22;97548.38;5000563;28;20049;-76
2021/03/26 05:40:47;;;;;;;22.85;11.75;;;;;;;8.03;61.86;97561.47;5031535;28;20124;-76
2021/03/26 05:43:39;;;;;;;26.33;11.70;;;;;;;8.22;62.40;97562.25;5009999;28;20103;-76
2021/03/26 05:46:29;;;;;;;23.27;10.57;;;;;;;8.24;62.07;97563.63;5024460;28;20032;-76
2021/03/26 05:49:07;;;;;;;23.73;12.07;;;;;;;8.34;62.13;97560.50;4979217;28;20088;-76
2021/03/26 05:51:46;;;;;;;19.83;10.90;;;;;;;8.40;61.15;97557.03;4995017;28;20596;-76
2021/03/26 05:54:34;;;;;;;20.63;11.10;;;;;;;8.30;60.97;97554.16;5011285;28;20038;-76
2021/03/26 05:57:05;;;;;;;22.80;11.68;;;;;;;8.75;60.72;97564.13;5011328;28;20068;-76
2021/03/26 05:59:55;;;;;;;19.90;10.45;;;;;;;8.51;60.82;97562.50;5014174;28;20060;-76
2021/03/26 06:02:58;;;;;;;17.63;10.25;;;;;;;8.64;62.27;97559.72;5028751;28;20477;-76
2021/03/26 06:05:45;;;;;;;19.35;10.27;;;;;;;8.98;61.49;97565.22;4993663;28;20045;-76
2021/03/26 06:08:19;;;;;;;21.42;11.05;;;;;;;9.29;61.31;97560.72;5029405;28;20037;-76
2021/03/26 06:11:11;;;;;;;17.55;10.40;;;;;;;9.34;60.93;97560.84;5030203;28;20128;-76
2021/03/26 06:14:10;;;;;;;22.45;10.90;;;;;;;9.11;60.47;97559.78;5006808;28;20519;-76
2021/03/26 06:17:14;;;;;;;21.05;11.40;;;;;;;9.22;60.10;97560.03;5030168;28;20243;-76
2021/03/26 06:19:51;;;;;;;19.90;10.57;;;;;;;9.36;59.91;97558.78;5013757;28;20083;-76
2021/03/26 06:22:29;;;;;;;21.55;11.07;;;;;;;9.49;60.03;97563.75;5023642;28;20063;-77
2021/03/26 06:25:17;;;;;;;18.88;10.68;;;;;;;9.86;60.12;97563.47;5013592;28;20024;-77
2021/03/26 06:28:10;;;;;;;20.58;10.38;;;;;;;9.65;60.07;97564.88;5022088;28;20117;-77
2021/03/26 06:30:53;;;;;;;19.67;10.48;;;;;;;10.06;59.45;97572.72;4993383;28;20073;-76
2021/03/26 06:33:28;;;;;;;16.67;10.35;;;;;;;10.21;59.69;97559.19;5017919;28;20037;-76
2021/03/26 06:35:59;;;;;;;22.10;11.65;;;;;;;10.33;58.87;97559.16;5022356;28;20479;-76
2021/03/26 06:38:31;;;;;;;18.98;9.55;;;;;;;10.44;58.70;97559.13;5025846;28;20425;-76
2021/03/26 06:41:38;;;;;;;18.20;11.05;;;;;;;10.38;59.54;97552.22;5031720;28;20042;-77
2021/03/26 06:44:28;;;;;;;20.88;10.25;;;;;;;10.77;58.21;97551.59;4953865;28;20086;-76
2021/03/26 06:47:14;;;;;;;17.85;9.77;;;;;;;11.01;57.43;97550.41;4954106;28;20062;-76
2021/03/26 06:50:01;;;;;;;19.20;10.10;;;;;;;11.05;58.01;97554.13;4921833;28;20523;-77
2021/03/26 06:52:53;;;;;;;17.65;9.77;;;;;;;11.37;57.50;97553.53;4953762;28;20445;-76
2021/03/26 06:55:39;;;;;;;20.48;10.32;;;;;;;11.48;57.71;97548.47;4937736;28;20047;-76
2021/03/26 06:58:37;;;;;;;18.33;10.15;;;;;;;11.84;56.62;97547.09;4938278;28;20079;-77
2021/03/26 07:01:41;;;;;;;15.65;9.20;;;;;;;12.06;55.03;97543.72;4953708;28;20406;-77
2021/03/26 07:04:09;;;;;;;17.48;9.82;;;;;;;12.60;54.12;97548.19;4961318;28;20406;-77
2021/03/26 07:07:16;;;;;;;15.98;9.52;;;;;;;12.44;52.97;97537.59;4953693;28;20042;-77
2021/03/26 07:10:08;;;;;;;15.68;8.35;;;;;;;12.77;52.17;97541.00;4883858;28;20271;-77
2021/03/26 07:12:57;;;;;;;15.32;8.88;;;;;;;13.15;51.06;97541.81;4931994;28;20046;-77
2021/03/26 07:15:38;;;;;;;14.32;9.05;;;;;;;13.35;50.17;97540.38;5000612;28;20037;-77
2021/03/26 07:18:13;;;;;;;16.05;8.68;;;;;;;13.80;49.50;97546.91;5014953;28;20516;-77
2021/03/26 07:21:11;;;;;;;15.20;8.90;;;;;;;13.79;49.90;97545.31;5009163;28;20033;-77
2021/03/26 07:23:40;;;;;;;14.10;8.50;;;;;;;14.15;47.53;97540.19;5009942;28;20030;-77
2021/03/26 07:26:24;;;;;;;18.27;8.65;;;;;;;14.46;48.52;97542.88;5026725;28;20029;-77
2021/03/26 07:29:30;;;;;;;15.27;8.38;;;;;;;14.19;49.42;97546.50;5003031;28;20033;-77
2021/03/26 07:32:14;;;;;;;;;;;;;;;14.09;49.23;97543.88;4994022;28;20040;-78
2021/03/26 07:34:48;;;;;;;13.57;7.72;;;;;;;14.48;47.73;97543.41;5033579;28;20000;-77
2021/03/26 07:37:36;;;;;;;12.33;8.27;;;;;;;14.73;47.07;97537.44;5022097;28;20053;-78
2021/03/26 07:40:14;;;;;;;15.85;8.93;;;;;;;14.83;47.91;97531.41;4995578;28;20522;-77
2021/03/26 07:43:02;;;;;;;13.85;8.05;;;;;;;15.02;46.57;97550.78;4996873;28;20041;-77
2021/03/26 07:46:03;;;;;;;12.35;7.72;;;;;;;15.40;46.26;97555.72;5015157;28;20044;-77
2021/03/26 07:48:59;;;;;;;14.82;7.78;;;;;;;15.50;44.92;97555.72;4967706;28;20042;-77
2021/03/26 07:51:32;;;;;;;;;;;;;;;15.57;45.34;97558.06;5007959;28;20473;-77
2021/03/26 07:54:26;;;;;;;14.20;7.82;;;;;;;16.12;43.83;97545.78;5009257;28;19987;-77
2021/03/26 07:57:10;;;;;;;13.00;8.00;;;;;;;16.60;44.04;97553.88;4991961;28;20069;-77
2021/03/26 08:00:03;;;;;;;13.75;8.18;;;;;;;16.28;43.15;97549.13;5005797;28;20530;-77
2021/03/26 08:02:52;;;;;;;10.13;7.53;;;;;;;16.48;42.33;97548.19;5035192;28;20088;-77
2021/03/26 08:05:29;;;;;;;11.32;7.72;;;;;;;16.81;42.31;97554.53;4996251;28;20504;-77
2021/03/26 08:08:27;;;;;;;10.65;7.05;;;;;;;16.71;42.74;97551.19;5018802;28;20453;-77
2021/03/26 08:11:47;;;;;;;11.05;7.10;;;;;;;16.99;41.33;97552.31;5008862;28;20527;-77
2021/03/26 08:14:36;;;;;;;12.48;7.47;;;;;;;16.83;42.48;97554.28;4932231;29;20580;-77
2021/03/26 08:17:20;;;;;;;12.80;7.68;;;;;;;17.06;41.52;97549.38;5035835;28;20033;-77
2021/03/26 08:20:00;;;;;;;12.65;7.82;;;;;;;17.45;41.63;97546.63;5022460;28;20038;-77
2021/03/26 08:22:31;;;;;;;13.57;7.90;;;;;;;17.01;42.50;97550.97;5020429;28;20365;-78
2021/03/26 08:25:15;;;;;;;14.25;8.57;;;;;;;16.93;42.93;97548.16;5016272;28;20038;-78
2021/03/26 08:27:44;;;;;;;11.68;7.97;;;;;;;17.50;42.24;97556.31;5008975;28;20133;-77
2021/03/26 08:30:24;;;;;;;11.63;7.82;;;;;;;17.74;40.79;97559.72;5011118;28;20068;-78
2021/03/26 08:33:02;;;;;;;10.93;7.45;;;;;;;18.06;39.83;97553.06;5004938;28;20025;-77
2021/03/26 08:35:48;;;;;;;14.63;8.73;;;;;;;18.47;39.88;97557.78;5021211;28;20033;-78
2021/03/26 08:38:36;;;;;;;;;;;;;;;18.13;39.62;97558.75;4992210;28;20109;-76
2021/03/26 08:41:23;;;;;;;12.65;7.65;;;;;;;18.77;38.55;97561.00;4979058;28;19919;-77
2021/03/26 08:43:54;;;;;;;15.10;8.60;;;;;;;18.64;38.26;97556.47;5025403;28;20407;-77
2021/03/26 08:46:33;;;;;;;13.27;8.30;;;;;;;18.20;40.35;97554.97;5010343;28;20033;-78
2021/03/26 08:49:19;;;;;;;11.85;8.07;;;;;;;18.23;40.31;97552.59;5003222;28;20523;-77
2021/03/26 08:52:12;;;;;;;11.20;7.93;;;;;;;18.62;37.95;97553.34;5028685;28;20101;-77
2021/03/26 08:54:43;;;;;;;13.25;7.65;;;;;;;18.42;38.70;97546.50;5026921;28;20107;-77
2021/03/26 08:57:31;;;;;;;11.25;7.60;;;;;;;18.20;39.00;97552.34;5010921;28;20504;-77
2021/03/26 08:59:59;;;;;;;12.38;7.05;;;;;;;18.75;38.18;97554.44;4995547;28;20037;-77
2021/03/26 09:02:36;;;;;;;10.02;7.13;;;;;;;18.87;37.92;97565.38;5028092;28;20046;-76
2021/03/26 09:05:35;;;;;;;10.60;8.02;;;;;;;18.82;38.02;97560.97;5006144;28;20034;-77
2021/03/26 09:08:06;;;;;;;9.90;7.38;;;;;;;19.02;37.44;97564.34;5013441;28;20099;-77
2021/03/26 09:10:53;;;;;;;12.52;7.38;;;;;;;18.60;38.25;97550.97;5014864;28;20040;-77
2021/03/26 09:13:43;;;;;;;10.77;6.55;;;;;;;18.50;39.77;97559.03;5019239;28;20022;-77
2021/03/26 09:16:12;;;;;;;11.75;6.90;;;;;;;19.02;37.59;97553.78;5023292;28;20036;-77
2021/03/26 09:18:51;;;;;;;10.23;7.00;;;;;;;19.08;36.84;97536.78;5000523;28;20463;-77
2021/03/26 09:21:42;;;;;;;10.13;6.28;;;;;;;18.99;38.44;97551.75;5012023;28;20108;-77
2021/03/26 09:24:23;;;;;;;8.93;6.32;;;;;;;19.28;37.89;97547.00;4995785;28;20042;-77
2021/03/26 09:27:11;;;;;;;9.85;6.57;;;;;;;19.46;36.02;97534.78;5031043;22;20506;-77
2021/03/26 09:29:51;;;;;;;9.63;6.13;;;;;;;19.59;36.38;97537.72;5015512;28;20030;-77
2021/03/26 09:32:28;;;;;;;8.90;5.88;;;;;;;19.82;35.97;97542.03;5011728;28;20041;-78
2021/03/26 09:35:22;;;;;;;7.47;5.85;;;;;;;19.93;35.57;97547.09;5020928;28;20433;-77
2021/03/26 09:38:01;;;;;;;8.88;5.20;;;;;;;19.74;36.94;97536.63;5019636;28;20025;-77
2021/03/26 09:40:37;;;;;;;9.35;5.55;;;;;;;20.20;35.13;97538.34;5033274;28;20073;-78
2021/03/26 09:43:16;;;;;;;7.57;5.93;;;;;;;19.98;34.34;97537.22;5056072;28;20033;-77
2021/03/26 09:45:48;;;;;;;10.52;5.93;;;;;;;19.45;35.07;97535.09;5021261;28;20465;-78
2021/03/26 09:48:36;;;;;;;6.10;4.88;;;;;;;19.02;35.99;97530.84;5038219;28;20052;-77
2021/03/26 09:51:24;;;;;;;8.88;6.15;;;;;;;18.48;37.60;97529.53;5050385;28;20163;-77
2021/03/26 09:53:51;;;;;;;8.38;5.88;;;;;;;19.14;37.27;97516.38;5027465;28;20044;-77
2021/03/26 09:56:33;;;;;;;6.50;5.45;;;;;;;18.98;36.83;97513.22;5039614;28;20035;-77
2021/03/26 09:59:06;;;;;;;12.05;5.40;;;;;;;18.84;36.54;97513.19;5032229;28;20032;-77
2021/03/26 10:01:39;;;;;;;8.48;5.15;;;;;;;18.66;36.62;97520.03;5051204;28;20039;-77
2021/03/26 10:04:09;;;;;;;7.65;4.90;;;;;;;19.07;35.91;97509.63;5051576;28;20041;-77
2021/03/26 10:07:02;;;;;;;6.38;4.57;;;;;;;19.23;35.97;97510.13;5016803;28;20074;-78
2021/03/26 10:09:46;;;;;;;8.43;4.40;;;;;;;19.51;35.01;97507.50;5061934;28;20052;-78
2021/03/26 10:12:11;;;;;;;6.88;4.53;;;;;;;20.17;33.89;97509.88;5043380;28;20729;-78
2021/03/26 10:14:44;;;;;;;7.72;5.13;;;;;;;19.87;33.65;97492.81;5022304;28;20033;-77
2021/03/26 10:17:10;;;;;;;7.18;4.32;;;;;;;19.78;33.16;97500.66;5032342;28;20033;-77
2021/03/26 10:19:40;;;;;;;6.55;4.00;;;;;;;19.91;33.68;97499.84;5034850;28;20470;-77
2021/03/26 10:22:25;;;;;;;4.55;3.90;;;;;;;19.48;34.64;97497.50;5054150;28;20020;-77
2021/03/26 10:25:26;;;;;;;5.38;4.25;;;;;;;19.24;32.83;97497.69;5032719;28;20587;-77
2021/03/26 10:28:17;;;;;;;5.63;4.50;;;;;;;19.38;32.95;97495.06;4982697;28;20044;-77
2021/03/26 10:30:44;;;;;;;8.73;4.22;;;;;;;19.66;32.60;97485.28;4998350;28;20037;-77
2021/03/26 10:33:15;;;;;;;5.65;3.65;;;;;;;19.21;34.08;97483.25;5029169;28;20483;-77
2021/03/26 10:35:53;;;;;;;8.07;4.45;;;;;;;19.06;34.48;97479.03;5007438;28;20535;-77
2021/03/26 10:38:29;;;;;;;4.70;2.80;;;;;;;18.98;33.58;97476.28;5013387;28;20036;-77
2021/03/26 10:41:24;;;;;;;5.78;3.45;;;;;;;18.93;33.50;97468.44;5004672;28;20033;-77
2021/03/26 10:44:31;;;;;;;4.93;3.65;;;;;;;19.27;32.98;97468.09;5017249;28;20052;-77
2021/03/26 10:47:20;;;;;;;6.85;4.20;;;;;;;19.67;33.47;97462.28;5050468;28;20119;-77
2021/03/26 10:49:51;;;;;;;5.43;3.10;;;;;;;19.62;32.37;97455.22;5025669;28;20044;-77
2021/03/26 10:52:25;;;;;;;3.78;2.70;;;;;;;19.52;32.42;97456.25;5025459;28;20614;-78
2021/03/26 10:54:56;;;;;;;5.25;2.80;;;;;;;19.76;31.45;97456.03;5030263;28;20060;-78
2021/03/26 10:58:09;;;;;;;3.85;2.80;;;;;;;19.64;33.83;97443.31;4992687;28;20037;-78
2021/03/26 11:00:38;;;;;;;3.78;2.58;;;;;;;19.96;31.79;97441.59;5015108;28;20055;-78
2021/03/26 11:03:18;;;;;;;5.50;2.78;;;;;;;19.74;31.84;97442.34;5018049;28;20116;-78
2021/03/26 11:05:52;;;;;;;6.30;2.60;;;;;;;20.07;32.84;97446.66;5025653;28;20104;-77
2021/03/26 11:08:18;;;;;;;3.90;2.88;;;;;;;21.03;31.27;97445.38;5030996;28;20791;-78
2021/03/26 11:10:56;;;;;;;4.78;3.10;;;;;;;20.82;32.98;97433.75;5007592;28;20041;-78
2021/03/26 11:13:33;;;;;;;5.90;2.90;;;;;;;21.76;29.64;97438.88;5014719;28;20079;-77
2021/03/26 11:16:36;;;;;;;4.82;2.92;;;;;;;21.72;31.25;97427.34;5002883;28;20384;-78
2021/03/26 11:19:27;;;;;;;3.45;3.15;;;;;;;21.96;28.06;97424.22;5023503;28;20060;-78
2021/03/26 11:22:03;;;;;;;4.88;3.10;;;;;;;21.96;27.90;97425.00;5009175;28;20039;-77
2021/03/26 11:24:39;;;;;;;3.60;2.78;;;;;;;21.79;29.21;97420.47;5022155;28;20059;-78
2021/03/26 11:27:09;;;;;;;4.30;2.53;;;;;;;22.31;28.55;97421.56;4994645;28;20034;-77
2021/03/26 11:29:37;;;;;;;4.38;2.92;;;;;;;22.37;26.80;97409.69;5026001;28;20030;-78
2021/03/26 11:32:12;;;;;;;6.55;3.83;;;;;;;22.00;27.68;97411.91;5000854;28;20245;-78
2021/03/26 11:35:00;;;;;;;4.72;3.08;;;;;;;21.13;28.91;97407.25;4993171;28;20032;-77
2021/03/26 11:37:35;;;;;;;5.18;3.60;;;;;;;20.75;29.42;97397.13;5021827;28;20077;-78
2021/03/26 11:40:07;;;;;;;4.25;3.13;;;;;;;20.35;31.43;97394.44;4997623;28;20120;-77
2021/03/26 11:42:44;;;;;;;4.93;3.15;;;;;;;19.89;31.06;97387.59;5026779;28;20039;-78
2021/03/26 11:45:32;;;;;;;4.80;3.08;;;;;;;20.20;30.93;97395.56;5008916;28;20063;-78
2021/03/26 11:48:03;;;;;;;5.07;3.60;;;;;;;20.65;30.01;97392.91;5013979;28;20029;-78
2021/03/26 11:50:49;;;;;;;3.70;2.97;;;;;;;20.45;29.99;97391.53;5002011;28;20362;-78
2021/03/26 11:53:34;;;;;;;4.63;3.17;;;;;;;21.00;30.60;97397.56;5007026;28;20507;-78
2021/03/26 11:56:24;;;;;;;5.00;2.67;;;;;;;21.26;29.15;97379.09;5035645;28;20520;-78
2021/03/26 11:59:01;;;;;;;6.70;3.75;;;;;;;21.13;29.70;97380.78;5013030;28;20037;-77
2021/03/26 12:01:40;;;;;;;6.57;3.75;;;;;;;22.03;27.73;97374.91;5024707;28;20068;-77
2021/03/26 12:04:30;;;;;;;4.00;2.90;;;;;;;21.95;29.75;97372.28;5012720;28;20041;-78
2021/03/26 12:07:09;;;;;;;5.35;2.88;;;;;;;22.37;29.35;97356.66;5022198;28;20494;-78
2021/03/26 12:09:40;;;;;;;4.65;3.28;;;;;;;22.34;29.31;97373.19;5012444;28;20040;-78
2021/03/26 12:12:12;;;;;;;4.45;3.40;;;;;;;22.17;28.20;97358.06;5026946;28;20028;-78
2021/03/26 12:15:06;;;;;;;3.88;3.30;;;;;;;22.41;28.15;97355.69;5028880;28;20333;-78
2021/03/26 12:17:36;;;;;;;4.80;3.13;;;;;;;22.01;29.29;97355.91;5008871;28;20246;-78